createdAt,value
2018-03-01T00:00:05.070Z,59.00
2018-03-01T00:02:08.376Z,59.20
2018-03-01T00:04:12.767Z,59.30
2018-03-01T00:06:16.307Z,59.90
2018-03-01T00:08:20.660Z,59.60
2018-03-01T00:10:25.032Z,59.30
2018-03-01T00:12:28.543Z,59.30
2018-03-01T00:14:32.860Z,59.30
2018-03-01T00:16:36.436Z,59.20
2018-03-01T00:18:39.990Z,59.60
2018-03-01T00:20:43.501Z,59.40
2018-03-01T00:22:47.386Z,59.40
2018-03-01T00:24:50.921Z,59.30
2018-03-01T00:26:54.483Z,59.20
2018-03-01T00:28:58.064Z,59.30
2018-03-01T00:31:01.641Z,59.30
2018-03-01T00:33:05.987Z,59.40
2018-03-01T00:35:09.579Z,59.40
2018-03-01T00:37:13.142Z,59.40
2018-03-01T00:39:16.657Z,59.30
2018-03-01T00:41:21.000Z,59.60
2018-03-01T00:43:24.559Z,59.60
2018-03-01T00:45:28.878Z,60.20
2018-03-01T00:47:33.234Z,60.00
2018-03-01T00:49:36.774Z,59.90
2018-03-01T00:51:40.331Z,59.60
2018-03-01T00:53:43.943Z,59.40
2018-03-01T00:55:47.436Z,59.20
2018-03-01T00:57:50.979Z,59.40
2018-03-01T00:59:55.319Z,59.40
2018-03-01T01:01:58.869Z,59.40
2018-03-01T01:04:03.271Z,60.20
2018-03-01T01:06:06.771Z,60.30
2018-03-01T01:08:10.326Z,59.70
2018-03-01T01:10:13.868Z,60.30
2018-03-01T01:12:17.491Z,59.80
2018-03-01T01:14:21.814Z,59.80
2018-03-01T01:16:25.697Z,59.90
2018-03-01T01:18:29.225Z,59.50
2018-03-01T01:20:32.709Z,59.70
2018-03-01T01:22:36.310Z,59.40
2018-03-01T01:24:39.888Z,59.80
2018-03-01T01:26:43.517Z,59.40
2018-03-01T01:28:47.069Z,59.40
2018-03-01T01:30:51.421Z,59.80
2018-03-01T01:32:54.920Z,59.90
2018-03-01T01:34:58.470Z,60.20
2018-03-01T01:37:02.822Z,59.30
2018-03-01T01:39:06.453Z,59.20
2018-03-01T01:41:10.025Z,59.40
2018-03-01T01:43:13.513Z,59.80
2018-03-01T01:45:17.062Z,61.00
2018-03-01T01:47:21.387Z,60.00
2018-03-01T01:49:25.709Z,59.50
2018-03-01T01:51:29.239Z,59.50
2018-03-01T01:53:32.831Z,59.80
2018-03-01T01:55:36.382Z,60.30
2018-03-01T01:57:39.945Z,59.90
2018-03-01T01:59:43.571Z,60.50
2018-03-01T02:01:47.085Z,60.20
2018-03-01T02:03:50.624Z,60.80
2018-03-01T02:05:54.247Z,60.00
2018-03-01T02:07:57.832Z,60.40
2018-03-01T02:10:01.381Z,59.70
2018-03-01T02:12:04.958Z,60.00
2018-03-01T02:14:08.488Z,60.10
2018-03-01T02:16:12.035Z,59.20
2018-03-01T02:18:16.429Z,60.10
2018-03-01T02:20:20.023Z,60.10
2018-03-01T02:22:23.571Z,59.70
2018-03-01T02:24:27.127Z,59.80
2018-03-01T02:26:30.645Z,59.60
2018-03-01T02:28:34.990Z,59.60
2018-03-01T02:30:38.532Z,59.50
2018-03-01T02:32:42.140Z,60.10
2018-03-01T02:34:45.766Z,59.50
2018-03-01T02:36:49.342Z,59.80
2018-03-01T02:38:53.654Z,59.80
2018-03-01T02:40:58.011Z,59.60
2018-03-01T02:43:01.601Z,59.60
2018-03-01T02:45:05.202Z,59.50
2018-03-01T02:47:08.820Z,60.10
2018-03-01T02:49:12.351Z,61.30
2018-03-01T02:51:16.647Z,60.20
2018-03-01T02:53:20.265Z,60.00
2018-03-01T02:55:24.557Z,60.70
2018-03-01T02:57:28.118Z,60.70
2018-03-01T02:59:31.683Z,59.70
2018-03-01T03:01:36.012Z,59.70
2018-03-01T03:03:39.553Z,59.70
2018-03-01T03:05:43.115Z,60.00
2018-03-01T03:07:46.695Z,60.90
2018-03-01T03:09:50.226Z,60.60
2018-03-01T03:11:53.811Z,59.80
2018-03-01T03:13:57.387Z,59.80
2018-03-01T03:16:00.980Z,59.70
2018-03-01T03:18:04.623Z,59.70
2018-03-01T03:20:08.146Z,60.20
2018-03-01T03:22:11.748Z,60.00
2018-03-01T03:24:16.057Z,59.70
2018-03-01T03:26:19.666Z,59.80
2018-03-01T03:28:23.195Z,59.60
2018-03-01T03:30:26.740Z,61.30
2018-03-01T03:32:31.053Z,60.00
2018-03-01T03:34:35.333Z,59.50
2018-03-01T03:36:38.853Z,59.50
2018-03-01T03:38:42.426Z,59.80
2018-03-01T03:40:45.960Z,60.00
2018-03-01T03:42:50.265Z,60.40
2018-03-01T03:44:54.578Z,60.00
2018-03-01T03:46:58.101Z,59.90
2018-03-01T03:49:01.671Z,61.00
2018-03-01T03:51:05.174Z,59.50
2018-03-01T03:53:09.634Z,59.90
2018-03-01T03:55:13.335Z,59.80
2018-03-01T03:57:16.857Z,59.60
2018-03-01T03:59:20.415Z,60.00
2018-03-01T04:01:24.046Z,59.90
2018-03-01T04:03:27.556Z,60.70
2018-03-01T04:05:31.099Z,59.70
2018-03-01T04:07:34.749Z,60.30
2018-03-01T04:09:38.286Z,60.40
2018-03-01T04:11:41.817Z,59.70
2018-03-01T04:13:45.381Z,59.70
2018-03-01T04:15:49.112Z,59.90
2018-03-01T04:17:52.648Z,60.80
2018-03-01T04:19:56.979Z,59.80
2018-03-01T04:22:00.554Z,59.80
2018-03-01T04:24:04.834Z,60.40
2018-03-01T04:26:08.447Z,60.30
2018-03-01T04:28:12.763Z,59.80
2018-03-01T04:30:17.166Z,59.70
2018-03-01T04:32:20.668Z,59.70
2018-03-01T04:34:24.220Z,60.30
2018-03-01T04:36:27.804Z,60.60
2018-03-01T04:38:31.357Z,60.00
2018-03-01T04:40:35.736Z,60.30
2018-03-01T04:42:39.237Z,61.00
2018-03-01T04:44:42.748Z,60.40
2018-03-01T04:46:46.364Z,60.20
2018-03-01T04:48:49.883Z,60.90
2018-03-01T04:50:54.171Z,60.50
2018-03-01T04:52:57.775Z,60.50
2018-03-01T04:55:01.330Z,61.60
2018-03-01T04:57:04.905Z,60.70
2018-03-01T04:59:08.487Z,60.40
2018-03-01T05:01:12.015Z,60.40
2018-03-01T05:03:15.595Z,60.10
2018-03-01T05:05:19.204Z,61.10
2018-03-01T05:07:23.549Z,60.30
2018-03-01T05:09:27.876Z,60.50
2018-03-01T05:11:32.226Z,61.00
2018-03-01T05:13:35.727Z,60.80
2018-03-01T05:15:39.237Z,61.50
2018-03-01T05:17:42.788Z,61.50
2018-03-01T05:19:47.084Z,61.50
2018-03-01T05:21:50.690Z,61.40
2018-03-01T05:23:55.060Z,60.80
2018-03-01T05:25:58.610Z,60.80
2018-03-01T05:28:02.215Z,61.10
2018-03-01T05:30:05.733Z,61.00
2018-03-01T05:32:09.281Z,60.10
2018-03-01T05:34:12.841Z,60.40
2018-03-01T05:36:16.416Z,61.20
2018-03-01T05:38:20.632Z,60.80
2018-03-01T05:40:24.198Z,60.80
2018-03-01T05:42:27.798Z,61.00
2018-03-01T05:44:31.329Z,60.80
2018-03-01T05:46:34.909Z,61.40
2018-03-01T05:48:38.564Z,60.90
2018-03-01T05:50:42.166Z,60.60
2018-03-01T05:52:46.474Z,60.50
2018-03-01T05:54:50.815Z,60.70
2018-03-01T05:56:54.397Z,60.60
2018-03-01T05:58:58.006Z,60.60
2018-03-01T06:01:02.341Z,60.90
2018-03-01T06:03:05.856Z,60.90
2018-03-01T06:05:09.422Z,60.80
2018-03-01T06:07:12.938Z,60.90
2018-03-01T06:09:16.477Z,61.10
2018-03-01T06:11:20.064Z,60.90
2018-03-01T06:13:23.554Z,61.00
2018-03-01T06:15:27.139Z,61.60
2018-03-01T06:17:30.650Z,61.50
2018-03-01T06:19:34.144Z,60.70
2018-03-01T06:21:37.723Z,61.20
2018-03-01T06:23:41.259Z,60.90
2018-03-01T06:25:44.773Z,61.50
2018-03-01T06:27:48.371Z,61.90
2018-03-01T06:29:51.955Z,61.00
2018-03-01T06:31:55.517Z,61.10
2018-03-01T06:33:59.078Z,61.80
2018-03-01T06:36:02.698Z,61.50
2018-03-01T06:38:06.230Z,61.00
2018-03-01T06:40:09.806Z,61.20
2018-03-01T06:42:14.188Z,61.90
2018-03-01T06:44:18.502Z,61.50
2018-03-01T06:46:22.068Z,61.20
2018-03-01T06:48:25.627Z,60.80
2018-03-01T06:50:29.250Z,61.50
2018-03-01T06:52:33.611Z,61.20
2018-03-01T06:54:37.160Z,61.10
2018-03-01T06:56:41.469Z,60.40
2018-03-01T06:58:45.790Z,60.50
2018-03-01T07:00:49.332Z,60.50
2018-03-01T07:02:52.845Z,60.10
2018-03-01T07:04:56.452Z,60.60
2018-03-01T07:07:00.064Z,61.80
2018-03-01T07:09:04.460Z,59.90
2018-03-01T07:11:08.860Z,60.00
2018-03-01T07:13:12.398Z,60.00
2018-03-01T07:15:16.699Z,59.90
2018-03-01T07:17:21.063Z,59.90
2018-03-01T07:19:24.637Z,59.90
2018-03-01T07:21:28.139Z,60.10
2018-03-01T07:23:31.728Z,59.50
2018-03-01T07:25:35.510Z,59.70
2018-03-01T07:27:39.829Z,60.00
2018-03-01T07:29:44.194Z,59.80
2018-03-01T07:31:47.713Z,59.70
2018-03-01T07:33:51.213Z,59.60
2018-03-01T07:35:57.994Z,59.30
2018-03-01T07:38:02.300Z,59.30
2018-03-01T07:40:06.652Z,59.20
2018-03-01T07:42:10.136Z,59.10
2018-03-01T07:44:13.684Z,58.80
2018-03-01T07:46:17.272Z,58.90
2018-03-01T07:48:20.793Z,57.70
2018-03-01T07:50:25.138Z,58.10
2018-03-01T07:52:28.696Z,58.00
2018-03-01T07:54:32.191Z,57.80
2018-03-01T07:56:35.731Z,57.20
2018-03-01T07:58:39.356Z,57.00
2018-03-01T08:00:43.677Z,57.20
2018-03-01T08:02:47.210Z,57.20
2018-03-01T08:04:51.580Z,56.60
2018-03-01T08:06:55.112Z,56.50
2018-03-01T08:08:59.390Z,56.50
2018-03-01T08:11:03.776Z,56.60
2018-03-01T08:13:07.342Z,56.70
2018-03-01T08:15:11.613Z,56.30
2018-03-01T08:17:15.205Z,56.50
2018-03-01T08:19:18.747Z,55.50
2018-03-01T08:21:22.355Z,56.00
2018-03-01T08:23:25.930Z,54.80
2018-03-01T08:25:29.427Z,54.30
2018-03-01T08:27:33.789Z,54.70
2018-03-01T08:29:37.379Z,54.70
2018-03-01T08:31:40.957Z,53.80
2018-03-01T08:33:44.508Z,54.30
2018-03-01T08:35:48.098Z,54.00
2018-03-01T08:37:51.703Z,54.40
2018-03-01T08:39:55.241Z,53.30
2018-03-01T08:41:59.588Z,53.50
2018-03-01T08:44:03.205Z,52.90
2018-03-01T08:46:06.758Z,52.90
2018-03-01T08:48:10.269Z,53.00
2018-03-01T08:50:13.830Z,52.20
2018-03-01T08:52:18.177Z,52.10
2018-03-01T08:54:21.672Z,52.10
2018-03-01T08:56:25.216Z,50.90
2018-03-01T08:58:29.563Z,52.90
2018-03-01T09:00:33.080Z,52.90
2018-03-01T09:02:36.636Z,51.00
2018-03-01T09:04:41.265Z,50.30
2018-03-01T09:06:44.912Z,50.20
2018-03-01T09:08:48.424Z,51.00
2018-03-01T09:10:51.950Z,50.40
2018-03-01T09:12:56.269Z,50.70
2018-03-01T09:15:00.596Z,49.20
2018-03-01T09:17:04.168Z,49.20
2018-03-01T09:19:08.480Z,48.80
2018-03-01T09:21:12.005Z,48.80
2018-03-01T09:23:15.515Z,48.50
2018-03-01T09:25:19.059Z,48.50
2018-03-01T09:27:23.438Z,48.50
2018-03-01T09:29:26.979Z,48.50
2018-03-01T09:31:31.244Z,46.60
2018-03-01T09:33:34.778Z,46.50
2018-03-01T09:35:39.079Z,46.70
2018-03-01T09:37:42.657Z,46.80
2018-03-01T09:39:46.212Z,45.30
2018-03-01T09:41:49.811Z,44.60
2018-03-01T09:43:53.366Z,43.80
2018-03-01T09:45:56.920Z,44.60
2018-03-01T09:48:01.273Z,46.30
2018-03-01T09:50:05.227Z,46.20
2018-03-01T09:52:08.768Z,45.60
2018-03-01T09:54:13.150Z,44.90
2018-03-01T09:56:16.703Z,44.90
2018-03-01T09:58:20.226Z,43.00
2018-03-01T10:00:23.816Z,42.80
2018-03-01T10:02:27.353Z,43.60
2018-03-01T10:04:30.871Z,43.40
2018-03-01T10:06:34.445Z,42.60
2018-03-01T10:08:37.980Z,42.50
2018-03-01T10:10:42.336Z,43.00
2018-03-01T10:12:45.893Z,42.80
2018-03-01T10:14:49.454Z,41.60
2018-03-01T10:16:52.997Z,41.20
2018-03-01T10:18:56.558Z,41.70
2018-03-01T10:21:00.065Z,41.00
2018-03-01T10:23:04.434Z,41.50
2018-03-01T10:25:08.098Z,40.70
2018-03-01T10:27:11.660Z,40.90
2018-03-01T10:29:15.191Z,40.70
2018-03-01T10:31:18.760Z,41.20
2018-03-01T10:33:23.123Z,41.70
2018-03-01T10:35:26.696Z,41.00
2018-03-01T10:37:30.253Z,39.40
2018-03-01T10:39:33.749Z,39.90
2018-03-01T10:41:37.383Z,39.50
2018-03-01T10:43:40.915Z,39.90
2018-03-01T10:45:44.442Z,39.70
2018-03-01T10:47:48.765Z,39.00
2018-03-01T10:49:53.069Z,39.00
2018-03-01T10:51:57.362Z,38.40
2018-03-01T10:54:01.731Z,38.20
2018-03-01T10:56:05.313Z,38.10
2018-03-01T10:58:08.889Z,38.00
2018-03-01T11:00:28.124Z,39.30
2018-03-01T11:02:31.670Z,37.80
2018-03-01T11:04:35.253Z,40.10
2018-03-01T11:06:39.555Z,37.80
2018-03-01T11:08:43.857Z,37.50
2018-03-01T11:10:48.291Z,37.70
2018-03-01T11:12:51.822Z,37.70
2018-03-01T11:14:55.357Z,37.80
2018-03-01T11:16:58.930Z,37.50
2018-03-01T11:19:02.528Z,37.50
2018-03-01T11:21:06.120Z,37.20
2018-03-01T11:23:09.693Z,37.20
2018-03-01T11:25:13.291Z,37.60
2018-03-01T11:27:16.861Z,36.20
2018-03-01T11:29:21.151Z,37.00
2018-03-01T11:31:24.634Z,36.60
2018-03-01T11:33:28.228Z,37.30
2018-03-01T11:35:31.742Z,35.60
2018-03-01T11:37:35.295Z,36.30
2018-03-01T11:39:38.898Z,38.70
2018-03-01T11:41:42.485Z,38.10
2018-03-01T11:43:46.036Z,37.10
2018-03-01T11:45:50.393Z,36.10
2018-03-01T11:47:53.920Z,36.00
2018-03-01T11:49:57.440Z,35.00
2018-03-01T11:52:01.021Z,35.80
2018-03-01T11:54:04.588Z,36.40
2018-03-01T11:56:08.141Z,36.40
2018-03-01T11:58:12.478Z,36.00
2018-03-01T12:00:16.028Z,36.10
2018-03-01T12:02:19.587Z,36.00
2018-03-01T12:04:23.141Z,37.70
2018-03-01T12:06:26.687Z,37.10
2018-03-01T12:08:30.316Z,35.10
2018-03-01T12:10:33.879Z,36.00
2018-03-01T12:12:38.305Z,36.00
2018-03-01T12:14:41.907Z,36.50
2018-03-01T12:16:45.426Z,35.20
2018-03-01T12:18:49.713Z,34.70
2018-03-01T12:20:53.293Z,34.60
2018-03-01T12:22:56.825Z,35.60
2018-03-01T12:25:00.345Z,34.80
2018-03-01T12:27:03.914Z,33.00
2018-03-01T12:29:07.477Z,34.10
2018-03-01T12:31:11.101Z,33.60
2018-03-01T12:33:14.664Z,32.50
2018-03-01T12:35:19.010Z,33.00
2018-03-01T12:37:22.549Z,32.80
2018-03-01T12:39:26.092Z,34.30
2018-03-01T12:41:29.643Z,33.50
2018-03-01T12:43:33.213Z,32.50
2018-03-01T12:45:37.515Z,32.60
2018-03-01T12:47:41.051Z,32.50
2018-03-01T12:49:44.646Z,33.30
2018-03-01T12:51:48.213Z,34.40
2018-03-01T12:53:51.781Z,33.20
2018-03-01T12:55:55.374Z,31.70
2018-03-01T12:57:59.715Z,31.50
2018-03-01T13:00:03.311Z,31.40
2018-03-01T13:02:06.941Z,29.60
2018-03-01T13:04:10.534Z,30.40
2018-03-01T13:06:14.106Z,31.50
2018-03-01T13:08:18.522Z,29.80
2018-03-01T13:10:22.875Z,29.40
2018-03-01T13:12:26.426Z,29.60
2018-03-01T13:14:30.021Z,29.10
2018-03-01T13:16:34.391Z,29.00
2018-03-01T13:18:37.952Z,28.90
2018-03-01T13:20:42.295Z,30.20
2018-03-01T13:22:45.900Z,30.20
2018-03-01T13:24:50.241Z,26.90
2018-03-01T13:26:53.856Z,28.00
2018-03-01T13:28:57.475Z,28.00
2018-03-01T13:31:15.880Z,28.50
2018-03-01T13:33:34.347Z,29.00
2018-03-01T13:35:37.917Z,28.00
2018-03-01T13:37:41.481Z,27.00
2018-03-01T13:39:45.132Z,27.60
2018-03-01T13:41:52.074Z,28.90
2018-03-01T13:43:56.398Z,29.80
2018-03-01T13:46:00.025Z,30.00
2018-03-01T13:48:04.366Z,28.30
2018-03-01T13:50:07.933Z,28.20
2018-03-01T13:52:11.543Z,31.70
2018-03-01T13:54:15.116Z,28.90
2018-03-01T13:56:18.695Z,29.10
2018-03-01T13:58:22.531Z,28.40
2018-03-01T14:00:26.859Z,28.70
2018-03-01T14:02:30.430Z,28.50
2018-03-01T14:04:34.024Z,27.70
2018-03-01T14:06:37.602Z,29.00
2018-03-01T14:08:41.228Z,27.40
2018-03-01T14:10:44.880Z,26.90
2018-03-01T14:13:05.143Z,27.00
2018-03-01T14:15:09.333Z,28.20
2018-03-01T14:17:18.547Z,30.40
2018-03-01T14:19:40.563Z,28.70
2018-03-01T14:21:58.966Z,28.70
2018-03-01T14:24:06.387Z,28.00
2018-03-01T14:26:10.819Z,28.50
2018-03-01T14:28:20.791Z,28.80
2018-03-01T14:30:25.210Z,28.90
2018-03-01T14:32:28.797Z,28.50
2018-03-01T14:34:33.075Z,26.60
2018-03-01T14:36:36.621Z,26.50
2018-03-01T14:38:40.207Z,27.90
2018-03-01T14:40:43.747Z,27.90
2018-03-01T14:42:47.342Z,30.20
2018-03-01T14:44:50.847Z,29.20
2018-03-01T14:46:54.371Z,30.40
2018-03-01T14:48:58.733Z,29.30
2018-03-01T14:51:03.078Z,28.60
2018-03-01T14:53:06.558Z,28.50
2018-03-01T14:55:10.114Z,28.80
2018-03-01T14:57:13.718Z,29.80
2018-03-01T14:59:17.273Z,30.00
2018-03-01T15:01:21.558Z,31.00
2018-03-01T15:03:25.120Z,31.00
2018-03-01T15:05:28.673Z,32.60
2018-03-01T15:07:32.220Z,33.10
2018-03-01T15:09:35.785Z,33.20
2018-03-01T15:11:40.050Z,32.70
2018-03-01T15:13:43.604Z,32.80
2018-03-01T15:15:47.919Z,33.20
2018-03-01T15:17:51.494Z,33.10
2018-03-01T15:19:55.019Z,34.30
2018-03-01T15:21:58.524Z,34.30
2018-03-01T15:24:02.090Z,32.80
2018-03-01T15:26:05.649Z,33.40
2018-03-01T15:28:09.200Z,33.70
2018-03-01T15:30:12.761Z,32.90
2018-03-01T15:32:16.323Z,32.40
2018-03-01T15:34:19.927Z,36.00
2018-03-01T15:36:23.406Z,34.40
2018-03-01T15:38:26.907Z,33.40
2018-03-01T15:40:30.511Z,33.40
2018-03-01T15:42:34.065Z,34.50
2018-03-01T15:44:37.607Z,33.50
2018-03-01T15:46:41.207Z,33.50
2018-03-01T15:48:44.750Z,35.20
2018-03-01T15:50:48.273Z,36.80
2018-03-01T15:52:52.185Z,37.10
2018-03-01T15:54:55.716Z,38.00
2018-03-01T15:56:59.317Z,38.60
2018-03-01T15:59:02.818Z,37.70
2018-03-01T16:01:07.112Z,38.30
2018-03-01T16:03:10.687Z,38.10
2018-03-01T16:05:14.288Z,38.50
2018-03-01T16:07:17.832Z,38.40
2018-03-01T16:09:21.421Z,38.70
2018-03-01T16:11:25.712Z,39.50
2018-03-01T16:13:29.301Z,39.40
2018-03-01T16:15:32.852Z,39.80
2018-03-01T16:17:36.401Z,40.60
2018-03-01T16:19:39.921Z,40.80
2018-03-01T16:21:44.299Z,43.40
2018-03-01T16:23:48.616Z,41.90
2018-03-01T16:25:52.189Z,41.70
2018-03-01T16:27:55.750Z,41.60
2018-03-01T16:30:00.046Z,41.50
2018-03-01T16:32:03.641Z,41.50
2018-03-01T16:34:07.958Z,43.20
2018-03-01T16:36:11.521Z,43.10
2018-03-01T16:38:15.056Z,43.60
2018-03-01T16:40:18.640Z,43.60
2018-03-01T16:42:22.215Z,43.90
2018-03-01T16:44:25.766Z,44.10
2018-03-01T16:46:29.362Z,44.80
2018-03-01T16:48:32.863Z,44.10
2018-03-01T16:50:36.396Z,45.10
2018-03-01T16:52:41.482Z,44.30
2018-03-01T16:54:45.033Z,44.30
2018-03-01T16:56:48.565Z,44.70
2018-03-01T16:58:52.109Z,44.40
2018-03-01T17:00:55.660Z,45.40
2018-03-01T17:02:59.247Z,44.40
2018-03-01T17:05:02.818Z,45.00
2018-03-01T17:07:06.365Z,45.10
2018-03-01T17:09:09.997Z,45.00
2018-03-01T17:11:13.498Z,44.90
2018-03-01T17:13:17.782Z,45.70
2018-03-01T17:15:21.383Z,45.60
2018-03-01T17:17:24.968Z,45.50
2018-03-01T17:19:28.510Z,46.10
2018-03-01T17:21:32.948Z,45.40
2018-03-01T17:23:37.204Z,46.40
2018-03-01T17:25:40.707Z,46.30
2018-03-01T17:27:44.320Z,46.20
2018-03-01T17:29:47.842Z,46.20
2018-03-01T17:31:51.402Z,45.60
2018-03-01T17:33:54.990Z,47.30
2018-03-01T17:35:58.546Z,46.20
2018-03-01T17:38:02.132Z,46.60
2018-03-01T17:40:05.681Z,46.30
2018-03-01T17:42:09.981Z,46.70
2018-03-01T17:44:14.332Z,46.70
2018-03-01T17:46:18.698Z,46.80
2018-03-01T17:48:22.232Z,46.70
2018-03-01T17:50:25.774Z,47.00
2018-03-01T17:52:29.347Z,46.90
2018-03-01T17:54:32.901Z,47.20
2018-03-01T17:56:36.527Z,47.70
2018-03-01T18:01:12.968Z,47.70
2018-03-01T18:03:16.540Z,47.80
2018-03-01T18:05:20.846Z,48.10
2018-03-01T18:07:24.391Z,48.10
2018-03-01T18:09:27.965Z,49.10
2018-03-01T18:11:31.527Z,48.00
2018-03-01T18:13:35.074Z,48.60
2018-03-01T18:15:38.656Z,48.60
2018-03-01T18:17:42.181Z,48.20
2018-03-01T18:19:45.702Z,49.00
2018-03-01T18:21:49.263Z,48.90
2018-03-01T18:23:52.784Z,49.30
2018-03-01T18:25:57.116Z,49.40
2018-03-01T18:28:00.707Z,49.30
2018-03-01T18:30:04.309Z,49.30
2018-03-01T18:32:07.847Z,49.70
2018-03-01T18:34:11.474Z,50.30
2018-03-01T18:36:15.804Z,50.00
2018-03-01T18:38:20.083Z,49.70
2018-03-01T18:40:23.610Z,49.70
2018-03-01T18:42:27.184Z,49.90
2018-03-01T18:44:30.763Z,49.50
2018-03-01T18:46:34.300Z,49.50
2018-03-01T18:48:37.916Z,50.20
2018-03-01T18:50:41.456Z,49.70
2018-03-01T18:52:44.970Z,49.60
2018-03-01T18:54:49.299Z,50.50
2018-03-01T18:56:52.906Z,50.50
2018-03-01T18:58:56.425Z,49.90
2018-03-01T19:00:59.960Z,49.70
2018-03-01T19:03:03.507Z,50.40
2018-03-01T19:05:07.065Z,50.20
2018-03-01T19:07:11.391Z,50.50
2018-03-01T19:09:14.944Z,50.60
2018-03-01T19:11:18.481Z,50.30
2018-03-01T19:13:22.043Z,51.10
2018-03-01T19:15:25.656Z,51.00
2018-03-01T19:17:29.204Z,51.70
2018-03-01T19:19:32.787Z,51.90
2018-03-01T19:21:36.346Z,51.20
2018-03-01T19:23:40.675Z,51.40
2018-03-01T19:25:44.256Z,51.30
2018-03-01T19:27:48.601Z,51.30
2018-03-01T19:29:52.129Z,51.10
2018-03-01T19:31:55.712Z,51.50
2018-03-01T19:33:59.217Z,51.70
2018-03-01T19:36:03.573Z,52.30
2018-03-01T19:38:07.141Z,52.30
2018-03-01T19:40:10.652Z,51.70
2018-03-01T19:42:14.264Z,51.50
2018-03-01T19:44:18.553Z,52.30
2018-03-01T19:46:22.056Z,52.20
2018-03-01T19:48:25.606Z,52.70
2018-03-01T19:50:29.137Z,52.20
2018-03-01T19:52:32.684Z,51.80
2018-03-01T19:54:36.242Z,52.60
2018-03-01T19:56:40.518Z,52.70
2018-03-01T19:58:44.072Z,52.60
2018-03-01T20:00:48.376Z,53.00
2018-03-01T20:02:52.720Z,52.60
2018-03-01T20:04:56.258Z,52.50
2018-03-01T20:06:59.839Z,52.60
2018-03-01T20:09:03.582Z,52.70
2018-03-01T20:11:07.867Z,52.30
2018-03-01T20:13:11.450Z,52.30
2018-03-01T20:15:15.879Z,53.90
2018-03-01T20:17:19.425Z,53.90
2018-03-01T20:19:23.036Z,54.10
2018-03-01T20:21:26.592Z,52.90
2018-03-01T20:23:30.933Z,53.20
2018-03-01T20:25:35.204Z,53.50
2018-03-01T20:27:38.763Z,53.40
2018-03-01T20:29:42.291Z,53.00
2018-03-01T20:31:45.823Z,53.20
2018-03-01T20:33:53.372Z,53.40
2018-03-01T20:35:58.632Z,53.40
2018-03-01T20:38:03.025Z,53.30
2018-03-01T20:40:06.608Z,53.30
2018-03-01T20:42:10.147Z,53.30
2018-03-01T20:44:14.466Z,53.60
2018-03-01T20:46:18.278Z,53.60
2018-03-01T20:48:21.818Z,53.40
2018-03-01T20:50:25.483Z,53.40
2018-03-01T20:52:29.073Z,53.40
2018-03-01T20:54:32.618Z,53.20
2018-03-01T20:56:36.196Z,53.50
2018-03-01T20:58:39.715Z,53.50
2018-03-01T21:00:44.505Z,53.90
2018-03-01T21:02:49.139Z,53.80
2018-03-01T21:04:52.650Z,53.70
2018-03-01T21:06:56.293Z,53.80
2018-03-01T21:08:59.900Z,53.70
2018-03-01T21:11:03.488Z,53.80
2018-03-01T21:13:07.029Z,54.10
2018-03-01T21:15:10.649Z,53.60
2018-03-01T21:17:14.209Z,54.80
2018-03-01T21:19:17.758Z,54.40
2018-03-01T21:21:22.137Z,55.00
2018-03-01T21:23:25.629Z,54.90
2018-03-01T21:25:29.117Z,53.90
2018-03-01T21:27:32.729Z,53.60
2018-03-01T21:29:36.294Z,53.70
2018-03-01T21:31:39.852Z,53.90
2018-03-01T21:33:43.570Z,53.90
2018-03-01T21:35:47.126Z,53.50
2018-03-01T21:37:51.532Z,54.00
2018-03-01T21:39:55.857Z,54.40
2018-03-01T21:42:00.154Z,54.60
2018-03-01T21:44:03.738Z,54.50
2018-03-01T21:46:07.344Z,54.40
2018-03-01T21:48:10.957Z,55.40
2018-03-01T21:50:14.654Z,54.70
2018-03-01T21:52:21.004Z,54.80
2018-03-01T21:54:24.938Z,54.20
2018-03-01T21:56:29.314Z,54.40
2018-03-01T21:58:33.625Z,54.30
2018-03-01T22:00:37.338Z,54.20
2018-03-01T22:02:40.944Z,54.60
2018-03-01T22:04:45.290Z,54.60
2018-03-01T22:06:48.876Z,54.10
2018-03-01T22:08:52.457Z,55.10
2018-03-01T22:10:56.037Z,55.40
2018-03-01T22:12:59.649Z,54.10
2018-03-01T22:15:05.368Z,54.80
2018-03-01T22:17:08.918Z,54.60
2018-03-01T22:19:13.242Z,54.80
2018-03-01T22:21:16.806Z,54.80
2018-03-01T22:23:20.374Z,55.10
2018-03-01T22:25:23.981Z,55.20
2018-03-01T22:27:27.696Z,54.90
2018-03-01T22:29:32.158Z,55.60
2018-03-01T22:31:35.707Z,55.60
2018-03-01T22:33:39.239Z,55.90
2018-03-01T22:35:42.836Z,54.80
2018-03-01T22:37:46.349Z,55.90
2018-03-01T22:39:50.879Z,55.70
2018-03-01T22:41:54.432Z,55.70
2018-03-01T22:43:58.749Z,55.50
2018-03-01T22:46:02.342Z,55.40
2018-03-01T22:48:05.930Z,55.40
2018-03-01T22:50:11.320Z,56.10
2018-03-01T22:52:14.896Z,55.70
2018-03-01T22:54:18.412Z,55.40
2018-03-01T22:56:21.956Z,55.80
2018-03-01T22:58:25.531Z,56.00
2018-03-01T23:00:41.734Z,56.30
2018-03-01T23:02:45.344Z,55.70
2018-03-01T23:04:48.886Z,55.70
2018-03-01T23:06:52.417Z,56.50
2018-03-01T23:08:56.014Z,55.90
2018-03-01T23:10:59.523Z,56.60
2018-03-01T23:13:03.090Z,56.00
2018-03-01T23:15:06.674Z,56.60
2018-03-01T23:17:10.231Z,57.20
2018-03-01T23:19:13.839Z,56.30
2018-03-01T23:21:17.406Z,56.50
2018-03-01T23:23:21.772Z,56.60
2018-03-01T23:25:26.166Z,56.50
2018-03-01T23:27:29.680Z,56.40
2018-03-01T23:29:34.057Z,56.60
2018-03-01T23:31:37.641Z,56.60
2018-03-01T23:33:41.257Z,56.60
2018-03-01T23:35:44.852Z,56.60
2018-03-01T23:37:48.413Z,56.80
2018-03-01T23:39:52.745Z,57.10
2018-03-01T23:41:56.339Z,57.10
2018-03-01T23:43:59.888Z,56.50
2018-03-01T23:46:03.466Z,56.70
2018-03-01T23:48:07.051Z,56.40
2018-03-01T23:50:10.645Z,56.90
2018-03-01T23:52:14.188Z,57.00
2018-03-01T23:54:17.812Z,57.10
2018-03-01T23:56:21.405Z,57.00
2018-03-01T23:58:25.741Z,57.00
